Time;durP1;ratioP1;P1;durP2;ratioP2;P2;SDS_P1;SDS_P2;PMS_P1;PMS_P2;Temp;Humidity;BMP_temperature;BMP_pressure;BME280_temperature;BME280_humidity;BME280_pressure;Samples;Min_cycle;Max_cycle;Signal;HPM_P1;HPM_P2
2022/06/23 00:01:01;;;;;;;5.38;2.78;;;;;;;;;;5079779;28;20046;-66
2022/06/23 00:03:33;;;;;;;4.63;2.83;;;;;;;;;;5069840;28;20417;-66
2022/06/23 00:06:01;;;;;;;4.68;2.85;;;;;;;;;;5081239;28;20043;-66
2022/06/23 00:08:27;;;;;;;3.40;2.70;;;;;;;;;;5088194;28;20111;-66
2022/06/23 00:10:59;;;;;;;3.00;2.50;;;;;;;;;;5081357;28;20068;-66
2022/06/23 00:13:33;;;;;;;4.82;2.95;;;;;;;;;;5086718;28;20023;-66
2022/06/23 00:15:58;;;;;;;5.07;3.38;;;;;;;;;;5087479;28;20027;-66
2022/06/23 00:18:26;;;;;;;3.30;3.00;;;;;;;;;;5085333;28;20024;-65
2022/06/23 00:20:52;;;;;;;4.05;3.17;;;;;;;;;;5076941;28;20151;-66
2022/06/23 00:23:23;;;;;;;7.55;3.00;;;;;;;;;;5086575;28;20173;-66
2022/06/23 00:25:52;;;;;;;4.22;2.97;;;;;;;;;;5085351;28;20036;-66
2022/06/23 00:28:29;;;;;;;7.40;2.85;;;;;;;;;;5087853;28;20020;-66
2022/06/23 00:31:00;;;;;;;5.57;2.78;;;;;;;;;;5086259;28;20040;-66
2022/06/23 00:33:38;;;;;;;7.03;2.92;;;;;;;;;;5073602;28;20036;-66
2022/06/23 00:36:18;;;;;;;6.03;3.15;;;;;;;;;;5067905;28;20059;-66
2022/06/23 00:38:44;;;;;;;4.57;3.33;;;;;;;;;;5067822;28;20032;-66
2022/06/23 00:41:17;;;;;;;4.80;3.10;;;;;;;;;;5078451;28;20039;-66
2022/06/23 00:43:46;;;;;;;6.25;2.97;;;;;;;;;;5073582;28;20047;-67
2022/06/23 00:46:33;;;;;;;3.78;2.90;;;;;;;;;;5085793;28;20035;-66
2022/06/23 00:49:08;;;;;;;5.55;2.97;;;;;;;;;;5079543;28;20601;-66
2022/06/23 00:51:47;;;;;;;5.50;3.17;;;;;;;;;;5086620;28;20103;-66
2022/06/23 00:54:26;;;;;;;5.55;3.40;;;;;;;;;;5084971;28;20039;-66
2022/06/23 00:56:54;;;;;;;4.93;2.97;;;;;;;;;;5082168;28;20123;-66
2022/06/23 00:59:33;;;;;;;3.80;3.22;;;;;;;;;;5085520;28;20113;-66
2022/06/23 01:02:04;;;;;;;5.00;3.08;;;;;;;;;;5085611;28;20028;-66
2022/06/23 01:04:35;;;;;;;3.75;3.30;;;;;;;;;;5084978;28;20505;-66
2022/06/23 01:07:15;;;;;;;4.35;3.20;;;;;;;;;;5077904;28;20104;-66
2022/06/23 01:09:48;;;;;;;4.28;3.05;;;;;;;;;;5080103;28;21109;-66
2022/06/23 01:12:25;;;;;;;4.33;3.60;;;;;;;;;;5080684;28;20090;-66
2022/06/23 01:15:06;;;;;;;3.40;3.10;;;;;;;;;;5085497;28;20075;-66
2022/06/23 01:17:37;;;;;;;3.83;3.28;;;;;;;;;;5076354;28;20039;-65
2022/06/23 01:20:21;;;;;;;6.85;3.30;;;;;;;;;;5084874;28;20585;-66
2022/06/23 01:22:49;;;;;;;4.28;3.03;;;;;;;;;;5085886;28;20036;-66
2022/06/23 01:25:43;;;;;;;5.15;3.20;;;;;;;;;;5078813;28;20442;-66
2022/06/23 01:28:19;;;;;;;6.28;3.25;;;;;;;;;;5085421;28;20032;-66
2022/06/23 01:30:50;;;;;;;11.52;3.63;;;;;;;;;;5085147;28;20044;-66
2022/06/23 01:33:27;;;;;;;7.57;4.00;;;;;;;;;;5091464;28;20059;-66
2022/06/23 01:36:05;;;;;;;4.30;3.45;;;;;;;;;;5088558;28;20539;-66
2022/06/23 01:38:50;;;;;;;7.65;4.18;;;;;;;;;;5088290;28;20564;-66
2022/06/23 01:41:34;;;;;;;5.95;3.80;;;;;;;;;;5087275;28;20033;-66
2022/06/23 01:44:09;;;;;;;5.82;3.80;;;;;;;;;;5091172;28;20107;-66
2022/06/23 01:46:38;;;;;;;6.50;4.07;;;;;;;;;;5089651;28;20511;-66
2022/06/23 01:49:13;;;;;;;7.78;4.10;;;;;;;;;;5089631;28;20024;-66
2022/06/23 01:51:49;;;;;;;5.72;4.25;;;;;;;;;;5090520;28;20032;-66
2022/06/23 01:54:20;;;;;;;5.70;4.60;;;;;;;;;;5089820;28;20503;-66
2022/06/23 01:57:07;;;;;;;9.35;4.40;;;;;;;;;;5090138;28;20058;-66
2022/06/23 01:59:57;;;;;;;6.53;4.75;;;;;;;;;;5086557;28;20035;-66
2022/06/23 02:02:32;;;;;;;4.90;4.13;;;;;;;;;;5090519;28;20078;-66
2022/06/23 02:05:45;;;;;;;6.75;4.75;;;;;;;;;;5078693;28;20531;-66
2022/06/23 02:08:33;;;;;;;7.45;4.70;;;;;;;;;;5076446;28;20564;-66
2022/06/23 02:11:13;;;;;;;7.38;4.80;;;;;;;;;;5078594;28;20673;-66
2022/06/23 02:13:49;;;;;;;8.88;5.05;;;;;;;;;;5089268;28;20046;-66
2022/06/23 02:16:35;;;;;;;11.30;4.65;;;;;;;;;;5077780;28;20048;-66
2022/06/23 02:19:23;;;;;;;6.32;4.70;;;;;;;;;;5076617;28;20036;-66
2022/06/23 02:22:01;;;;;;;7.95;4.78;;;;;;;;;;5087008;28;20136;-66
2022/06/23 02:24:34;;;;;;;9.05;4.65;;;;;;;;;;5088761;28;20063;-66
2022/06/23 02:26:59;;;;;;;;;;;;;;;;;;5075656;28;20039;-66
2022/06/23 02:29:34;;;;;;;7.65;4.57;;;;;;;;;;5090632;28;19927;-66
2022/06/23 02:32:36;;;;;;;8.63;5.03;;;;;;;;;;5079207;28;20052;-66
2022/06/23 02:35:15;;;;;;;7.13;5.13;;;;;;;;;;5085660;28;20471;-66
2022/06/23 02:37:53;;;;;;;12.43;5.22;;;;;;;;;;5088665;28;20024;-66
2022/06/23 02:40:42;;;;;;;7.75;5.13;;;;;;;;;;5087320;28;20024;-66
2022/06/23 02:43:28;;;;;;;6.00;4.90;;;;;;;;;;5079931;28;20059;-66
2022/06/23 02:46:24;;;;;;;8.15;5.03;;;;;;;;;;5088773;28;20044;-66
2022/06/23 02:49:08;;;;;;;7.20;4.85;;;;;;;;;;5086806;28;20040;-66
2022/06/23 02:51:39;;;;;;;8.55;5.07;;;;;;;;;;5089292;28;20040;-66
2022/06/23 02:54:23;;;;;;;7.78;5.55;;;;;;;;;;5086518;28;20033;-66
2022/06/23 02:57:07;;;;;;;7.10;5.07;;;;;;;;;;5089025;28;20043;-66
2022/06/23 02:59:39;;;;;;;9.10;5.60;;;;;;;;;;5087466;28;20042;-66
2022/06/23 03:02:22;;;;;;;11.00;5.63;;;;;;;;;;5079245;28;20071;-66
2022/06/23 03:04:57;;;;;;;5.85;4.78;;;;;;;;;;5076110;28;20054;-66
2022/06/23 03:07:34;;;;;;;10.02;5.93;;;;;;;;;;5087733;28;20024;-66
2022/06/23 03:10:14;;;;;;;9.40;5.65;;;;;;;;;;5072143;28;20467;-66
2022/06/23 03:12:47;;;;;;;7.15;5.28;;;;;;;;;;5085037;28;20444;-66
2022/06/23 03:15:33;;;;;;;8.77;6.15;;;;;;;;;;5087410;28;20040;-66
2022/06/23 03:18:02;;;;;;;8.00;6.07;;;;;;;;;;5087161;28;20036;-65
2022/06/23 03:20:46;;;;;;;8.88;6.03;;;;;;;;;;5079911;28;20040;-66
2022/06/23 03:23:29;;;;;;;7.05;5.75;;;;;;;;;;5086768;28;20056;-66
2022/06/23 03:26:06;;;;;;;10.52;6.18;;;;;;;;;;5077622;28;20043;-67
2022/06/23 03:28:44;;;;;;;9.48;6.35;;;;;;;;;;5085594;28;20073;-66
2022/06/23 03:31:29;;;;;;;11.77;5.97;;;;;;;;;;5086776;28;20034;-66
2022/06/23 03:34:04;;;;;;;9.35;6.05;;;;;;;;;;5086318;28;20043;-66
2022/06/23 03:36:51;;;;;;;10.30;5.78;;;;;;;;;;5087507;28;20036;-66
2022/06/23 03:42:17;;;;;;;7.67;5.80;;;;;;;;;;5085461;28;20059;-66
2022/06/23 03:44:43;;;;;;;9.10;6.20;;;;;;;;;;5088041;28;20127;-66
2022/06/23 03:47:30;;;;;;;12.13;5.90;;;;;;;;;;5086055;28;20123;-66
2022/06/23 03:50:04;;;;;;;12.80;6.10;;;;;;;;;;5086466;28;20473;-66
2022/06/23 03:52:37;;;;;;;8.90;6.32;;;;;;;;;;5085944;28;20581;-66
2022/06/23 03:55:27;;;;;;;10.38;6.30;;;;;;;;;;5087918;28;20024;-66
2022/06/23 03:57:57;;;;;;;11.65;7.05;;;;;;;;;;5086634;28;20040;-66
2022/06/23 04:00:35;;;;;;;9.38;6.43;;;;;;;;;;5087054;28;20036;-66
2022/06/23 04:03:20;;;;;;;12.48;7.03;;;;;;;;;;5076325;28;20056;-66
2022/06/23 04:05:54;;;;;;;9.57;6.65;;;;;;;;;;5085471;28;20059;-65
2022/06/23 04:08:21;;;;;;;10.10;6.95;;;;;;;;;;5087785;28;20051;-66
2022/06/23 04:10:48;;;;;;;14.95;6.43;;;;;;;;;;5077836;28;20405;-66
2022/06/23 04:13:25;;;;;;;10.55;6.70;;;;;;;;;;5087083;28;20027;-66
2022/06/23 04:15:54;;;;;;;10.43;6.78;;;;;;;;;;5085634;28;20039;-66
2022/06/23 04:18:25;;;;;;;12.45;6.93;;;;;;;;;;5085309;28;20028;-66
2022/06/23 04:20:59;;;;;;;11.48;7.15;;;;;;;;;;5086374;28;20181;-66
2022/06/23 04:23:32;;;;;;;12.68;6.35;;;;;;;;;;5082527;28;20044;-66
2022/06/23 04:26:21;;;;;;;13.57;6.90;;;;;;;;;;5082190;28;20181;-66
2022/06/23 04:28:48;;;;;;;12.75;6.80;;;;;;;;;;5081201;28;20048;-66
2022/06/23 04:31:24;;;;;;;11.45;6.78;;;;;;;;;;5079078;28;20085;-66
2022/06/23 04:33:50;;;;;;;10.57;7.25;;;;;;;;;;5083062;28;20032;-66
2022/06/23 04:36:22;;;;;;;12.85;7.50;;;;;;;;;;5086649;28;20039;-66
2022/06/23 04:39:04;;;;;;;14.68;7.70;;;;;;;;;;5085862;28;20032;-66
2022/06/23 04:41:39;;;;;;;13.90;7.40;;;;;;;;;;5071793;28;20071;-66
2022/06/23 04:44:13;;;;;;;12.23;7.30;;;;;;;;;;5083111;28;20081;-66
2022/06/23 04:46:43;;;;;;;17.33;8.27;;;;;;;;;;5079623;28;20020;-66
2022/06/23 04:49:26;;;;;;;12.82;7.90;;;;;;;;;;5085108;28;20012;-66
2022/06/23 04:51:57;;;;;;;11.82;8.02;;;;;;;;;;5085269;28;20410;-66
2022/06/23 04:54:31;;;;;;;12.52;7.72;;;;;;;;;;5084559;28;20039;-66
2022/06/23 04:57:09;;;;;;;;;;;;;;;;;;5086693;28;20035;-66
2022/06/23 04:59:37;;;;;;;13.40;8.70;;;;;;;;;;5085263;28;20445;-66
2022/06/23 05:02:20;;;;;;;16.33;8.25;;;;;;;;;;5076564;28;20052;-66
2022/06/23 05:04:52;;;;;;;15.07;8.73;;;;;;;;;;5085256;28;20109;-66
2022/06/23 05:07:31;;;;;;;15.95;8.50;;;;;;;;;;5086891;28;20025;-66
2022/06/23 05:10:01;;;;;;;16.67;8.27;;;;;;;;;;5082574;28;20127;-66
2022/06/23 05:12:51;;;;;;;17.60;8.70;;;;;;;;;;5070876;28;20528;-66
2022/06/23 05:15:18;;;;;;;15.63;9.07;;;;;;;;;;5075149;28;20102;-66
2022/06/23 05:17:54;;;;;;;16.25;8.63;;;;;;;;;;5085058;28;20072;-66
2022/06/23 05:20:26;;;;;;;15.93;8.70;;;;;;;;;;5085146;28;20044;-66
2022/06/23 05:22:52;;;;;;;13.73;8.73;;;;;;;;;;5081366;28;20068;-66
2022/06/23 05:25:41;;;;;;;16.52;8.82;;;;;;;;;;5086143;28;20058;-66
2022/06/23 05:28:15;;;;;;;15.75;8.40;;;;;;;;;;5085757;28;20040;-66
2022/06/23 05:30:48;;;;;;;17.55;9.15;;;;;;;;;;5085430;28;20024;-66
2022/06/23 05:33:20;;;;;;;19.67;10.27;;;;;;;;;;5082378;28;20064;-66
2022/06/23 05:36:05;;;;;;;28.35;12.27;;;;;;;;;;5085619;28;20040;-66
2022/06/23 05:38:43;;;;;;;23.20;11.10;;;;;;;;;;5085401;28;20544;-66
2022/06/23 05:41:41;;;;;;;21.48;11.45;;;;;;;;;;5078630;28;20166;-66
2022/06/23 05:44:20;;;;;;;28.17;12.63;;;;;;;;;;5083232;28;20032;-66
2022/06/23 05:46:48;;;;;;;22.88;11.75;;;;;;;;;;5085686;28;20032;-66
2022/06/23 05:49:19;;;;;;;30.00;12.82;;;;;;;;;;5082477;28;20155;-66
2022/06/23 05:51:49;;;;;;;19.77;10.75;;;;;;;;;;5086001;28;20036;-66
2022/06/23 05:54:19;;;;;;;20.50;11.23;;;;;;;;;;5082888;28;20032;-66
2022/06/23 05:56:54;;;;;;;22.25;11.10;;;;;;;;;;5085692;28;20587;-66
2022/06/23 05:59:38;;;;;;;21.00;10.65;;;;;;;;;;5084671;28;20040;-66
2022/06/23 06:02:11;;;;;;;17.33;10.75;;;;;;;;;;5085432;28;20059;-66
2022/06/23 06:04:45;;;;;;;15.73;10.38;;;;;;;;;;5084617;28;20124;-66
2022/06/23 06:07:17;;;;;;;23.85;10.85;;;;;;;;;;5084772;28;20016;-66
2022/06/23 06:09:43;;;;;;;17.77;10.75;;;;;;;;;;5074050;28;20052;-66
2022/06/23 06:12:22;;;;;;;22.25;11.55;;;;;;;;;;5081994;28;20031;-66
2022/06/23 06:14:54;;;;;;;21.70;11.05;;;;;;;;;;5083977;28;20048;-66
2022/06/23 06:17:23;;;;;;;20.30;12.50;;;;;;;;;;5077826;28;20047;-66
2022/06/23 06:19:50;;;;;;;24.42;11.77;;;;;;;;;;5078189;28;20060;-66
2022/06/23 06:22:37;;;;;;;22.83;12.30;;;;;;;;;;5090922;28;20099;-66
2022/06/23 06:25:05;;;;;;;21.63;13.00;;;;;;;;;;5083449;28;20031;-66
2022/06/23 06:27:31;;;;;;;23.13;13.13;;;;;;;;;;5074045;28;20041;-66
2022/06/23 06:29:57;;;;;;;22.63;12.35;;;;;;;;;;5089099;28;20044;-66
2022/06/23 06:32:37;;;;;;;24.73;14.10;;;;;;;;;;5084547;28;20037;-66
2022/06/23 06:35:15;;;;;;;24.65;12.90;;;;;;;;;;5089384;28;20141;-66
2022/06/23 06:37:47;;;;;;;23.88;13.77;;;;;;;;;;5073681;28;20622;-64
2022/06/23 06:40:13;;;;;;;25.30;14.10;;;;;;;;;;5086544;28;20085;-64
2022/06/23 06:43:02;;;;;;;25.67;14.57;;;;;;;;;;5082068;28;20032;-64
2022/06/23 06:45:33;;;;;;;25.13;12.90;;;;;;;;;;5085379;28;20039;-64
2022/06/23 06:47:58;;;;;;;23.35;13.95;;;;;;;;;;5082144;28;20500;-64
2022/06/23 06:50:44;;;;;;;23.95;14.65;;;;;;;;;;5086404;28;20039;-64
2022/06/23 06:53:22;;;;;;;19.55;13.88;;;;;;;;;;5093252;28;20047;-64
2022/06/23 06:55:52;;;;;;;22.45;13.52;;;;;;;;;;5092120;28;20096;-64
2022/06/23 06:58:26;;;;;;;22.20;14.07;;;;;;;;;;5091142;28;20048;-64
2022/06/23 07:00:54;;;;;;;21.42;13.65;;;;;;;;;;5094421;28;20042;-64
2022/06/23 07:03:22;;;;;;;22.13;14.35;;;;;;;;;;5099118;28;20055;-64
2022/06/23 07:05:53;;;;;;;24.48;14.52;;;;;;;;;;5096818;28;20027;-68
2022/06/23 07:09:03;;;;;;;23.30;14.68;;;;;;;;;;5094810;28;20551;-67
2022/06/23 07:12:00;;;;;;;22.67;14.88;;;;;;;;;;5049360;28;20052;-68
2022/06/23 07:14:43;;;;;;;22.17;13.80;;;;;;;;;;5093565;28;20031;-68
2022/06/23 07:17:37;;;;;;;24.77;14.63;;;;;;;;;;5090506;28;20066;-68
2022/06/23 07:20:28;;;;;;;21.70;15.20;;;;;;;;;;5089321;28;20137;-68
2022/06/23 07:22:59;;;;;;;20.83;15.32;;;;;;;;;;5090721;28;20165;-68
2022/06/23 07:25:43;;;;;;;22.20;13.38;;;;;;;;;;5089033;28;20038;-68
2022/06/23 07:28:14;;;;;;;20.23;13.60;;;;;;;;;;5091710;28;20024;-68
2022/06/23 07:30:54;;;;;;;18.30;13.30;;;;;;;;;;5091810;28;20576;-67
2022/06/23 07:33:41;;;;;;;25.50;14.25;;;;;;;;;;5094461;28;20066;-67
2022/06/23 07:36:19;;;;;;;20.73;13.88;;;;;;;;;;5090990;28;20031;-67
2022/06/23 07:39:04;;;;;;;21.77;14.82;;;;;;;;;;5089926;28;20038;-67
2022/06/23 07:41:55;;;;;;;21.38;14.45;;;;;;;;;;5088931;28;20488;-68
2022/06/23 07:44:30;;;;;;;19.75;13.70;;;;;;;;;;5088055;28;20035;-68
2022/06/23 07:46:55;;;;;;;20.27;15.00;;;;;;;;;;5089918;28;20085;-68
2022/06/23 07:49:21;;;;;;;19.67;13.52;;;;;;;;;;5086971;28;20035;-68
2022/06/23 07:51:47;;;;;;;23.92;13.98;;;;;;;;;;5089745;28;20551;-68
2022/06/23 07:54:17;;;;;;;21.52;13.23;;;;;;;;;;5089438;28;20042;-67
2022/06/23 07:56:43;;;;;;;19.92;14.70;;;;;;;;;;5093217;28;20492;-67
2022/06/23 07:59:15;;;;;;;23.63;14.18;;;;;;;;;;5089693;28;20024;-66
2022/06/23 08:02:02;;;;;;;18.50;13.10;;;;;;;;;;5092937;28;20127;-67
2022/06/23 08:04:36;;;;;;;22.70;13.93;;;;;;;;;;5092138;28;20051;-67
2022/06/23 08:07:03;;;;;;;22.13;14.02;;;;;;;;;;5089220;28;20042;-66
2022/06/23 08:09:37;;;;;;;18.17;13.15;;;;;;;;;;5091361;28;20031;-67
2022/06/23 08:14:48;;;;;;;20.25;13.45;;;;;;;;;;5089982;28;20553;-67
2022/06/23 08:17:16;;;;;;;20.05;13.55;;;;;;;;;;5091609;28;20039;-68
2022/06/23 08:19:51;;;;;;;20.52;12.90;;;;;;;;;;5091557;28;20035;-67
2022/06/23 08:22:44;;;;;;;19.52;13.63;;;;;;;;;;5091684;28;20044;-68
2022/06/23 08:25:10;;;;;;;19.95;13.50;;;;;;;;;;5087861;28;20053;-68
2022/06/23 08:27:39;;;;;;;18.73;13.48;;;;;;;;;;5095443;28;20032;-67
2022/06/23 08:30:09;;;;;;;21.23;12.68;;;;;;;;;;5091316;28;20048;-68
2022/06/23 08:32:39;;;;;;;17.52;11.98;;;;;;;;;;5091438;28;20031;-67
2022/06/23 08:35:08;;;;;;;17.63;11.88;;;;;;;;;;5092898;28;20043;-68
2022/06/23 08:37:41;;;;;;;17.15;12.45;;;;;;;;;;5094177;28;20039;-67
2022/06/23 08:40:29;;;;;;;16.77;12.38;;;;;;;;;;5092193;28;20081;-68
2022/06/23 08:43:04;;;;;;;17.17;12.40;;;;;;;;;;5081935;28;20052;-67
2022/06/23 08:45:39;;;;;;;19.63;12.40;;;;;;;;;;5087307;28;20078;-67
2022/06/23 08:48:11;;;;;;;15.77;11.90;;;;;;;;;;5085431;28;20039;-68
2022/06/23 08:50:51;;;;;;;18.10;12.15;;;;;;;;;;5085657;28;20016;-68
2022/06/23 08:53:34;;;;;;;18.00;11.18;;;;;;;;;;5074684;28;20052;-68
2022/06/23 08:56:10;;;;;;;16.25;11.82;;;;;;;;;;5083639;28;20060;-68
2022/06/23 08:58:52;;;;;;;17.33;11.73;;;;;;;;;;5079282;28;20059;-68
2022/06/23 09:01:37;;;;;;;17.33;11.30;;;;;;;;;;5085193;28;20096;-68
2022/06/23 09:04:08;;;;;;;17.20;11.80;;;;;;;;;;5076156;28;20036;-69
2022/06/23 09:06:48;;;;;;;21.10;11.50;;;;;;;;;;5085183;28;20043;-68
2022/06/23 09:09:37;;;;;;;16.30;12.40;;;;;;;;;;5084707;28;20062;-68
2022/06/23 09:12:35;;;;;;;16.50;11.80;;;;;;;;;;5085185;28;20085;-68
2022/06/23 09:15:37;;;;;;;17.30;11.73;;;;;;;;;;5073462;28;20472;-68
2022/06/23 09:18:25;;;;;;;16.30;11.57;;;;;;;;;;5078459;28;20046;-68
2022/06/23 09:21:14;;;;;;;15.63;10.63;;;;;;;;;;5082690;28;20028;-68
2022/06/23 09:23:54;;;;;;;16.45;10.70;;;;;;;;;;5081295;28;20471;-68
2022/06/23 09:26:47;;;;;;;16.40;10.95;;;;;;;;;;5083503;28;20047;-68
2022/06/23 09:29:28;;;;;;;14.70;10.65;;;;;;;;;;5083812;28;20040;-68
2022/06/23 09:32:23;;;;;;;14.35;10.07;;;;;;;;;;5080197;28;20717;-68
2022/06/23 09:35:13;;;;;;;13.50;9.38;;;;;;;;;;5075326;28;20040;-67
2022/06/23 09:37:59;;;;;;;16.05;10.00;;;;;;;;;;5070623;28;20558;-68
2022/06/23 09:40:55;;;;;;;16.13;10.43;;;;;;;;;;5071338;28;20032;-67
2022/06/23 09:43:49;;;;;;;15.07;10.38;;;;;;;;;;5078619;28;20086;-67
2022/06/23 09:46:20;;;;;;;15.55;10.55;;;;;;;;;;5074418;28;20044;-68
2022/06/23 09:48:52;;;;;;;13.55;10.07;;;;;;;;;;5077467;28;20116;-67
2022/06/23 09:51:41;;;;;;;12.13;9.52;;;;;;;;;;5082364;28;20024;-68
2022/06/23 09:54:36;;;;;;;12.30;10.05;;;;;;;;;;5081649;28;20054;-67
2022/06/23 09:57:03;;;;;;;13.65;10.02;;;;;;;;;;5078964;28;20024;-67
2022/06/23 09:59:51;;;;;;;16.23;10.20;;;;;;;;;;5082578;28;20540;-67
2022/06/23 10:02:29;;;;;;;15.90;11.15;;;;;;;;;;5082787;28;20044;-67
2022/06/23 10:05:03;;;;;;;14.98;11.45;;;;;;;;;;5080920;28;20749;-68
2022/06/23 10:07:56;;;;;;;15.45;11.00;;;;;;;;;;5084798;28;20673;-68
2022/06/23 10:10:40;;;;;;;20.10;14.50;;;;;;;;;;5083062;28;20032;-67
2022/06/23 10:13:23;;;;;;;15.23;10.95;;;;;;;;;;5088121;28;20123;-70
2022/06/23 10:16:25;;;;;;;12.77;9.85;;;;;;;;;;5084656;28;20622;-70
2022/06/23 10:19:15;;;;;;;12.80;9.73;;;;;;;;;;5084817;28;20039;-70
2022/06/23 10:22:15;;;;;;;12.98;8.40;;;;;;;;;;5083698;28;20036;-70
2022/06/23 10:25:10;;;;;;;9.85;7.22;;;;;;;;;;5061492;28;20044;-70
2022/06/23 10:27:47;;;;;;;9.20;6.55;;;;;;;;;;5071565;28;20110;-70
2022/06/23 10:30:40;;;;;;;9.05;7.15;;;;;;;;;;5084088;28;20562;-70
2022/06/23 10:33:22;;;;;;;13.48;6.18;;;;;;;;;;5084558;28;20031;-70
2022/06/23 10:36:19;;;;;;;8.63;6.32;;;;;;;;;;5087551;28;20090;-70
2022/06/23 10:38:58;;;;;;;10.43;6.50;;;;;;;;;;5096267;28;20105;-71
2022/06/23 10:41:39;;;;;;;9.60;6.30;;;;;;;;;;5104368;27;20036;-70
2022/06/23 10:44:53;;;;;;;11.57;6.28;;;;;;;;;;5083026;28;20516;-70
2022/06/23 10:47:24;;;;;;;13.48;6.28;;;;;;;;;;5085909;28;20082;-70
2022/06/23 10:50:27;;;;;;;8.30;5.82;;;;;;;;;;5082037;28;20036;-70
2022/06/23 10:53:09;;;;;;;7.03;4.78;;;;;;;;;;5082616;28;20538;-70
2022/06/23 10:55:51;;;;;;;7.38;5.47;;;;;;;;;;5082269;28;20487;-70
2022/06/23 10:58:54;;;;;;;6.60;4.25;;;;;;;;;;5086592;28;20058;-70
2022/06/23 11:01:23;;;;;;;5.88;4.07;;;;;;;;;;5086406;28;20672;-70
2022/06/23 11:04:27;;;;;;;5.93;4.07;;;;;;;;;;5079952;28;20040;-70
2022/06/23 11:07:11;;;;;;;;;;;;;;;;;;5084554;28;20059;-70
2022/06/23 11:09:48;;;;;;;5.43;4.00;;;;;;;;;;5085809;28;19923;-70
2022/06/23 11:12:45;;;;;;;7.55;4.13;;;;;;;;;;5082187;28;20028;-71
2022/06/23 11:15:31;;;;;;;8.45;4.57;;;;;;;;;;5083202;28;20019;-70
2022/06/23 11:18:09;;;;;;;7.38;4.93;;;;;;;;;;5082711;28;20490;-70
2022/06/23 11:21:09;;;;;;;5.75;4.30;;;;;;;;;;5071336;28;20059;-70
2022/06/23 11:23:47;;;;;;;6.10;4.75;;;;;;;;;;5070193;28;20086;-71
2022/06/23 11:26:27;;;;;;;11.38;5.03;;;;;;;;;;5080753;28;20214;-70
2022/06/23 11:29:10;;;;;;;8.95;4.72;;;;;;;;;;5078069;28;20802;-70
2022/06/23 11:31:54;;;;;;;8.73;4.57;;;;;;;;;;5079046;28;20035;-71
2022/06/23 11:34:44;;;;;;;9.38;4.38;;;;;;;;;;5081087;28;20056;-70
2022/06/23 11:37:22;;;;;;;5.90;4.30;;;;;;;;;;5079634;28;20040;-69
2022/06/23 11:40:09;;;;;;;7.10;3.90;;;;;;;;;;5085079;28;20028;-70
2022/06/23 11:42:57;;;;;;;5.55;3.97;;;;;;;;;;5085794;28;20061;-70
2022/06/23 11:45:28;;;;;;;7.15;4.05;;;;;;;;;;5085938;28;20667;-70
2022/06/23 11:48:23;;;;;;;5.93;3.95;;;;;;;;;;5087215;28;20111;-70
2022/06/23 11:51:04;;;;;;;4.63;3.65;;;;;;;;;;5084561;28;20044;-70
2022/06/23 11:53:50;;;;;;;5.45;3.85;;;;;;;;;;5087045;28;20536;-71
2022/06/23 11:56:57;;;;;;;6.55;4.55;;;;;;;;;;5084026;28;20032;-71
2022/06/23 11:59:34;;;;;;;9.60;4.63;;;;;;;;;;5083161;28;20040;-70
2022/06/23 12:01:59;;;;;;;5.03;3.40;;;;;;;;;;5084928;28;20217;-70
2022/06/23 12:04:40;;;;;;;8.05;3.67;;;;;;;;;;5081182;28;20120;-70
2022/06/23 12:07:25;;;;;;;5.25;3.70;;;;;;;;;;5082336;28;20055;-71
2022/06/23 12:09:50;;;;;;;4.28;3.65;;;;;;;;;;5088140;28;20044;-71
2022/06/23 12:12:16;;;;;;;6.85;3.63;;;;;;;;;;5087309;28;20546;-71
2022/06/23 12:14:42;;;;;;;4.53;3.30;;;;;;;;;;5086728;28;20086;-70
2022/06/23 12:17:16;;;;;;;6.75;3.50;;;;;;;;;;5087463;28;20390;-72
2022/06/23 12:20:19;;;;;;;3.80;3.40;;;;;;;;;;5080442;28;20032;-72
2022/06/23 12:23:12;;;;;;;5.57;3.60;;;;;;;;;;5082440;28;20066;-71
2022/06/23 12:25:59;;;;;;;5.78;3.45;;;;;;;;;;5086322;28;20414;-71
2022/06/23 12:28:49;;;;;;;3.90;2.70;;;;;;;;;;5084572;28;20071;-71
2022/06/23 12:31:24;;;;;;;8.18;3.53;;;;;;;;;;5086350;28;20135;-72
2022/06/23 12:34:09;;;;;;;10.32;3.53;;;;;;;;;;5083321;28;20032;-72
2022/06/23 12:36:44;;;;;;;5.30;3.28;;;;;;;;;;5084924;28;20036;-70
2022/06/23 12:39:17;;;;;;;5.25;3.20;;;;;;;;;;5085872;28;20024;-70
2022/06/23 12:41:50;;;;;;;4.18;3.30;;;;;;;;;;5079147;28;20095;-71
2022/06/23 12:44:37;;;;;;;6.43;2.83;;;;;;;;;;5084825;28;20024;-72
2022/06/23 12:47:24;;;;;;;4.63;2.83;;;;;;;;;;5085830;28;20105;-70
2022/06/23 12:50:30;;;;;;;5.43;3.15;;;;;;;;;;5080704;28;20094;-70
2022/06/23 12:53:10;;;;;;;6.15;2.85;;;;;;;;;;5080833;28;20097;-71
2022/06/23 12:55:57;;;;;;;3.85;2.60;;;;;;;;;;5090050;28;20115;-71
2022/06/23 12:58:39;;;;;;;3.65;2.97;;;;;;;;;;5077576;28;20035;-71
2022/06/23 13:01:12;;;;;;;6.80;2.60;;;;;;;;;;5083628;28;20032;-71
2022/06/23 13:04:02;;;;;;;5.72;2.75;;;;;;;;;;5084993;28;20036;-71
2022/06/23 13:06:33;;;;;;;3.95;2.42;;;;;;;;;;5087422;28;20513;-71
2022/06/23 13:09:28;;;;;;;3.60;3.10;;;;;;;;;;5084169;28;20096;-73
2022/06/23 13:12:35;;;;;;;3.17;2.50;;;;;;;;;;5047193;28;20259;-74
2022/06/23 13:15:05;;;;;;;5.07;2.75;;;;;;;;;;5080071;28;20398;-73
2022/06/23 13:17:34;;;;;;;4.05;2.50;;;;;;;;;;5080822;28;20020;-73
2022/06/23 13:20:09;;;;;;;3.30;2.47;;;;;;;;;;5083732;28;20667;-71
2022/06/23 13:22:59;;;;;;;2.72;2.17;;;;;;;;;;5075257;28;20083;-71
2022/06/23 13:25:28;;;;;;;4.15;2.15;;;;;;;;;;5078487;28;20032;-73
2022/06/23 13:27:55;;;;;;;4.78;2.42;;;;;;;;;;5086365;28;20044;-71
2022/06/23 13:30:26;;;;;;;5.18;2.20;;;;;;;;;;5086653;28;20039;-71
2022/06/23 13:33:15;;;;;;;2.22;2.03;;;;;;;;;;5084817;28;20051;-73
2022/06/23 13:35:50;;;;;;;4.85;2.30;;;;;;;;;;5085787;28;20032;-73
2022/06/23 13:38:25;;;;;;;3.00;2.10;;;;;;;;;;5083806;28;20032;-73
2022/06/23 13:40:56;;;;;;;4.18;2.47;;;;;;;;;;5085946;28;20097;-73
2022/06/23 13:43:39;;;;;;;3.92;2.30;;;;;;;;;;5082505;28;20123;-73
2022/06/23 13:46:14;;;;;;;4.53;2.10;;;;;;;;;;5089244;28;20028;-73
2022/06/23 13:48:55;;;;;;;3.35;2.35;;;;;;;;;;5086969;28;20050;-73
2022/06/23 13:51:32;;;;;;;2.92;2.17;;;;;;;;;;5083109;28;20040;-71
2022/06/23 13:54:03;;;;;;;3.25;2.33;;;;;;;;;;5085638;28;20409;-71
2022/06/23 13:56:36;;;;;;;3.30;2.17;;;;;;;;;;5089489;28;20036;-71
2022/06/23 13:59:09;;;;;;;3.28;2.00;;;;;;;;;;5089672;28;20036;-71
2022/06/23 14:01:51;;;;;;;3.95;2.30;;;;;;;;;;5086153;28;20127;-72
2022/06/23 14:04:23;;;;;;;3.80;2.10;;;;;;;;;;5067639;28;20033;-71
2022/06/23 14:07:07;;;;;;;4.38;2.20;;;;;;;;;;5072419;28;20517;-70
2022/06/23 14:10:02;;;;;;;3.38;2.13;;;;;;;;;;5084751;28;20040;-71
2022/06/23 14:12:44;;;;;;;2.85;2.25;;;;;;;;;;5087967;28;20028;-71
2022/06/23 14:15:18;;;;;;;3.63;2.05;;;;;;;;;;5086113;28;20030;-71
2022/06/23 14:18:13;;;;;;;5.95;2.35;;;;;;;;;;5089239;28;20054;-71
2022/06/23 14:20:51;;;;;;;4.68;2.15;;;;;;;;;;5074656;28;20131;-72
2022/06/23 14:23:27;;;;;;;7.57;2.58;;;;;;;;;;5085700;28;20048;-71
2022/06/23 14:25:55;;;;;;;4.22;2.10;;;;;;;;;;5083684;28;20024;-71
2022/06/23 14:28:24;;;;;;;2.42;2.10;;;;;;;;;;5085992;28;20036;-71
2022/06/23 14:31:06;;;;;;;2.50;2.30;;;;;;;;;;5084871;28;20051;-71
2022/06/23 14:33:47;;;;;;;3.03;2.20;;;;;;;;;;5082713;28;20061;-71
2022/06/23 14:36:34;;;;;;;2.72;2.20;;;;;;;;;;5084377;28;20028;-71
2022/06/23 14:39:10;;;;;;;5.95;2.30;;;;;;;;;;5084652;28;20134;-71
2022/06/23 14:41:41;;;;;;;2.58;2.08;;;;;;;;;;5088492;28;20069;-72
2022/06/23 14:44:09;;;;;;;2.50;1.95;;;;;;;;;;5086318;28;20122;-71
2022/06/23 14:46:44;;;;;;;3.47;2.05;;;;;;;;;;5088029;28;20050;-71
2022/06/23 14:49:26;;;;;;;6.03;2.50;;;;;;;;;;5083290;28;20036;-71
2022/06/23 14:52:08;;;;;;;2.60;2.03;;;;;;;;;;5084005;28;20556;-71
2022/06/23 14:55:15;;;;;;;5.00;2.10;;;;;;;;;;5086571;28;20581;-71
2022/06/23 14:57:50;;;;;;;4.03;2.35;;;;;;;;;;5083899;28;20112;-71
2022/06/23 15:00:25;;;;;;;3.00;2.03;;;;;;;;;;5086850;28;20784;-71
2022/06/23 15:03:02;;;;;;;4.05;2.00;;;;;;;;;;5080697;28;20065;-71
2022/06/23 15:05:40;;;;;;;4.20;2.22;;;;;;;;;;5084917;28;20089;-71
2022/06/23 15:08:21;;;;;;;2.42;1.90;;;;;;;;;;5084807;28;20525;-75
2022/06/23 15:10:56;;;;;;;2.17;2.00;;;;;;;;;;5089424;28;20501;-67
2022/06/23 15:13:33;;;;;;;3.30;1.90;;;;;;;;;;5068437;28;20047;-67
2022/06/23 15:16:14;;;;;;;4.35;2.03;;;;;;;;;;5078905;28;20111;-67
2022/06/23 15:19:18;;;;;;;2.20;2.00;;;;;;;;;;5076818;28;20028;-66
2022/06/23 15:24:43;;;;;;;2.45;2.25;;;;;;;;;;5086280;28;20050;-67
2022/06/23 15:27:37;;;;;;;2.17;1.80;;;;;;;;;;5084574;28;20094;-67
2022/06/23 15:30:26;;;;;;;3.63;1.70;;;;;;;;;;5080999;28;20066;-67
2022/06/23 15:32:58;;;;;;;3.45;1.70;;;;;;;;;;5085095;28;20016;-67
2022/06/23 15:35:36;;;;;;;;;;;;;;;;;;5083302;28;20472;-67
2022/06/23 15:38:39;;;;;;;1.98;1.77;;;;;;;;;;5082878;28;19961;-67
2022/06/23 15:41:33;;;;;;;3.65;2.05;;;;;;;;;;5082923;28;20032;-67
2022/06/23 15:44:21;;;;;;;4.18;2.10;;;;;;;;;;5086994;28;20071;-67
2022/06/23 15:46:55;;;;;;;4.65;1.80;;;;;;;;;;5082399;28;20055;-67
2022/06/23 15:49:31;;;;;;;2.40;2.00;;;;;;;;;;5081991;28;20044;-67
2022/06/23 15:52:08;;;;;;;2.78;1.77;;;;;;;;;;5087328;28;20033;-67